PWSweather.com
Personal Weather Stations
Station Observations
THAIWX
Pa Daet, Chiang MaiTH 50100

Pa DaetChiang MaiTH 50100

Lat: 18.766158, Lon: 98.97553

Elevation: 1007

Station Type: LaCrosse WS2315

http://www.ThaiWx.yolasite.com/

Latest ConditionsUpdated 1:09:56 PM GMT+07:07 Thursday, Oct 18, 2018
Currently Today's Max Today's Min Today's Average
Temperature 91.0°F32.8°C 91.2°F32.9°C 75.2°F24.0°C 80.0°F26.7°C
Dew Point 77.1°F25.1°C 77.8°F25.4°C 72.4°F22.4°C 74.8°F23.8°C
Winds 1.3 mph SSE2.1 kmh SSE 3.6 mph -5.8 kmh - - 0.3 mph 0.5 kmh
Wind Gusts 3.1 mph5.0 kmh 5.4 mph8.7 kmh - -
Humidity 64% 92% 64% 84%
Pressure 29.87 in1011.5 mb 29.97 in1014.9 mb 29.86 in1011.2 mb -
Hour Temp Dew Point Humidity Winds Wind Gusts Pressure Precip Precip Rate Daily Precip Total
01:09 PM 91.0°F32.8°C 77.1°F25.1°C 64% 1.3 mph SSE2.1 kmh SSE 3.1 mph5.0 kmh 29.87 in1011.5 mb 0.00 in0.0 mm 0.00 in0.0 mm 0.00 in0.0 mm
01:03 PM 91.2°F32.9°C 77.7°F25.4°C 65% 1.6 mph SSE2.6 kmh SSE 3.1 mph5.0 kmh 29.87 in1011.5 mb 0.00 in0.0 mm 0.00 in0.0 mm 0.00 in0.0 mm
12:57 PM 91.0°F32.8°C 77.6°F25.3°C 65% Calm Calm -- 29.88 in1011.9 mb 0.00 in0.0 mm 0.00 in0.0 mm 0.00 in0.0 mm
12:52 PM 90.7°F32.6°C 77.3°F25.2°C 65% Calm Calm 0.9 mph1.4 kmh 29.88 in1011.9 mb 0.00 in0.0 mm 0.00 in0.0 mm 0.00 in0.0 mm
12:46 PM 90.3°F32.4°C 76.9°F24.9°C 65% Calm Calm 1.1 mph1.8 kmh 29.89 in1012.2 mb 0.00 in0.0 mm 0.00 in0.0 mm 0.00 in0.0 mm
12:40 PM 90.1°F32.3°C 77.2°F25.1°C 66% 1.1 mph WSW1.8 kmh WSW 1.1 mph1.8 kmh 29.89 in1012.2 mb 0.00 in0.0 mm 0.00 in0.0 mm 0.00 in0.0 mm
12:35 PM 89.8°F32.1°C 77.4°F25.2°C 67% Calm Calm 3.1 mph5.0 kmh 29.89 in1012.2 mb 0.00 in0.0 mm 0.00 in0.0 mm 0.00 in0.0 mm
12:31 PM 89.4°F31.9°C 77.5°F25.3°C 68% 0.7 mph ESE1.1 kmh ESE 5.4 mph8.7 kmh 29.89 in1012.2 mb 0.00 in0.0 mm 0.00 in0.0 mm 0.00 in0.0 mm
12:24 PM 89.2°F31.8°C 76.9°F24.9°C 67% 2.5 mph NE4.0 kmh NE 5.4 mph8.7 kmh 29.90 in1012.5 mb 0.00 in0.0 mm 0.00 in0.0 mm 0.00 in0.0 mm
12:20 PM 88.9°F31.6°C 77.4°F25.2°C 69% Calm Calm 2.5 mph4.0 kmh 29.90 in1012.5 mb 0.00 in0.0 mm 0.00 in0.0 mm 0.00 in0.0 mm
12:14 PM 88.5°F31.4°C 77.1°F25.1°C 69% 1.1 mph SW1.8 kmh SW 3.4 mph5.5 kmh 29.90 in1012.5 mb 0.00 in0.0 mm 0.00 in0.0 mm 0.00 in0.0 mm
12:09 PM 88.3°F31.3°C 76.9°F24.9°C 69% 3.4 mph S5.5 kmh S 3.4 mph5.5 kmh 29.90 in1012.5 mb 0.00 in0.0 mm 0.00 in0.0 mm 0.00 in0.0 mm
12:03 PM 88.5°F31.4°C 77.1°F25.1°C 69% 1.8 mph S2.9 kmh S 2.2 mph3.5 kmh 29.91 in1012.9 mb 0.00 in0.0 mm 0.00 in0.0 mm 0.00 in0.0 mm
11:59 AM 88.3°F31.3°C 77.8°F25.4°C 71% Calm Calm 1.8 mph2.9 kmh 29.91 in1012.9 mb 0.00 in0.0 mm 0.00 in0.0 mm 0.00 in0.0 mm
11:54 AM 88.2°F31.2°C 77.0°F25.0°C 69% 1.8 mph SE2.9 kmh SE 1.8 mph2.9 kmh 29.92 in1013.2 mb 0.00 in0.0 mm 0.00 in0.0 mm 0.00 in0.0 mm
11:48 AM 87.6°F30.9°C 77.1°F25.1°C 71% 0.9 mph 1.4 kmh 1.8 mph2.9 kmh 29.92 in1013.2 mb 0.00 in0.0 mm 0.00 in0.0 mm 0.00 in0.0 mm
11:44 AM 87.4°F30.8°C 76.9°F24.9°C 71% Calm Calm 0.9 mph1.4 kmh 29.92 in1013.2 mb 0.00 in0.0 mm 0.00 in0.0 mm 0.00 in0.0 mm
11:39 AM 87.1°F30.6°C 76.2°F24.6°C 70% Calm Calm 0.9 mph1.4 kmh 29.92 in1013.2 mb 0.00 in0.0 mm 0.00 in0.0 mm 0.00 in0.0 mm
11:33 AM 87.1°F30.6°C 77.0°F25.0°C 72% Calm Calm 0.9 mph1.4 kmh 29.93 in1013.5 mb 0.00 in0.0 mm 0.00 in0.0 mm 0.00 in0.0 mm
11:29 AM 87.1°F30.6°C 77.2°F25.1°C 72% 0.9 mph ESE1.4 kmh ESE 1.3 mph2.1 kmh 29.93 in1013.5 mb 0.00 in0.0 mm 0.00 in0.0 mm 0.00 in0.0 mm
11:22 AM 86.7°F30.4°C 77.1°F25.1°C 73% 1.3 mph SW2.1 kmh SW 1.3 mph2.1 kmh 29.93 in1013.5 mb 0.00 in0.0 mm 0.00 in0.0 mm 0.00 in0.0 mm
11:18 AM 86.5°F30.3°C 76.9°F24.9°C 73% Calm Calm 0.9 mph1.4 kmh 29.93 in1013.5 mb 0.00 in0.0 mm 0.00 in0.0 mm 0.00 in0.0 mm
11:12 AM 86.4°F30.2°C 76.6°F24.8°C 73% Calm Calm 2.9 mph4.7 kmh 29.93 in1013.5 mb 0.00 in0.0 mm 0.00 in0.0 mm 0.00 in0.0 mm
11:07 AM 86.2°F30.1°C 76.9°F24.9°C 74% 2.9 mph SSE4.7 kmh SSE 2.9 mph4.7 kmh 29.94 in1013.9 mb 0.00 in0.0 mm 0.00 in0.0 mm 0.00 in0.0 mm
11:03 AM 86.2°F30.1°C 76.9°F24.9°C 74% 1.8 mph E2.9 kmh E 1.8 mph2.9 kmh 29.94 in1013.9 mb 0.00 in0.0 mm 0.00 in0.0 mm 0.00 in0.0 mm
10:57 AM 85.8°F29.9°C 77.0°F25.0°C 75% 1.1 mph ESE1.8 kmh ESE 1.1 mph1.8 kmh 29.94 in1013.9 mb 0.00 in0.0 mm 0.00 in0.0 mm 0.00 in0.0 mm
10:52 AM 85.3°F29.6°C 76.9°F24.9°C 75% Calm Calm 1.3 mph2.1 kmh 29.95 in1014.2 mb 0.00 in0.0 mm 0.00 in0.0 mm 0.00 in0.0 mm
10:48 AM 84.9°F29.4°C 76.5°F24.7°C 76% 0.9 mph SSE1.4 kmh SSE 1.3 mph2.1 kmh 29.95 in1014.2 mb 0.00 in0.0 mm 0.00 in0.0 mm 0.00 in0.0 mm
10:42 AM 84.7°F29.3°C 76.3°F24.6°C 76% Calm Calm 3.6 mph5.8 kmh 29.95 in1014.2 mb 0.00 in0.0 mm 0.00 in0.0 mm 0.00 in0.0 mm
10:37 AM 84.7°F29.3°C 76.3°F24.6°C 76% 3.6 mph SSE5.8 kmh SSE 3.6 mph5.8 kmh 29.95 in1014.2 mb 0.00 in0.0 mm 0.00 in0.0 mm 0.00 in0.0 mm
10:31 AM 84.7°F29.3°C 76.7°F24.8°C 77% Calm Calm 1.8 mph2.9 kmh 29.95 in1014.2 mb 0.00 in0.0 mm 0.00 in0.0 mm 0.00 in0.0 mm
10:27 AM 84.6°F29.2°C 76.1°F24.5°C 76% 1.1 mph 1.8 kmh 1.8 mph2.9 kmh 29.95 in1014.2 mb 0.00 in0.0 mm 0.00 in0.0 mm 0.00 in0.0 mm
10:20 AM 84.4°F29.1°C 76.4°F24.7°C 77% 1.8 mph E2.9 kmh E 1.8 mph2.9 kmh 29.96 in1014.6 mb 0.00 in0.0 mm 0.00 in0.0 mm 0.00 in0.0 mm
10:16 AM 84.4°F29.1°C 76.4°F24.7°C 77% Calm Calm 1.1 mph1.8 kmh 29.96 in1014.6 mb 0.00 in0.0 mm 0.00 in0.0 mm 0.00 in0.0 mm
10:10 AM 84.0°F28.9°C 76.0°F24.4°C 77% 0.7 mph S1.1 kmh S 0.7 mph1.1 kmh 29.96 in1014.6 mb 0.00 in0.0 mm 0.00 in0.0 mm 0.00 in0.0 mm
10:05 AM 83.8°F28.8°C 76.2°F24.6°C 78% Calm Calm 2.5 mph4.0 kmh 29.96 in1014.6 mb 0.00 in0.0 mm 0.00 in0.0 mm 0.00 in0.0 mm
09:59 AM 83.7°F28.7°C 76.5°F24.7°C 79% 2.5 mph ESE4.0 kmh ESE 2.5 mph4.0 kmh 29.96 in1014.6 mb 0.00 in0.0 mm 0.00 in0.0 mm 0.00 in0.0 mm
09:55 AM 83.7°F28.7°C 76.5°F24.7°C 79% 1.1 mph S1.8 kmh S 2.2 mph3.5 kmh 29.96 in1014.6 mb 0.00 in0.0 mm 0.00 in0.0 mm 0.00 in0.0 mm
09:48 AM 83.5°F28.6°C 76.7°F24.8°C 80% Calm Calm 1.8 mph2.9 kmh 29.96 in1014.6 mb 0.00 in0.0 mm 0.00 in0.0 mm 0.00 in0.0 mm
09:44 AM 83.3°F28.5°C 76.6°F24.8°C 80% Calm Calm 0.7 mph1.1 kmh 29.96 in1014.6 mb 0.00 in0.0 mm 0.00 in0.0 mm 0.00 in0.0 mm
09:37 AM 83.1°F28.4°C 76.4°F24.7°C 80% Calm Calm 2.5 mph4.0 kmh 29.96 in1014.6 mb 0.00 in0.0 mm 0.00 in0.0 mm 0.00 in0.0 mm
09:33 AM 82.9°F28.3°C 76.6°F24.8°C 81% Calm Calm 2.5 mph4.0 kmh 29.96 in1014.6 mb 0.00 in0.0 mm 0.00 in0.0 mm 0.00 in0.0 mm
09:29 AM 82.8°F28.2°C 76.7°F24.8°C 82% Calm Calm 1.1 mph1.8 kmh 29.97 in1014.9 mb 0.00 in0.0 mm 0.00 in0.0 mm 0.00 in0.0 mm
09:22 AM 82.2°F27.9°C 76.2°F24.6°C 82% Calm Calm 2.7 mph4.3 kmh 29.97 in1014.9 mb 0.00 in0.0 mm 0.00 in0.0 mm 0.00 in0.0 mm
09:18 AM 82.0°F27.8°C 76.1°F24.5°C 82% Calm Calm 2.7 mph4.3 kmh 29.96 in1014.6 mb 0.00 in0.0 mm 0.00 in0.0 mm 0.00 in0.0 mm
09:14 AM 81.9°F27.7°C 76.6°F24.8°C 84% 1.1 mph SE1.8 kmh SE 1.6 mph2.6 kmh 29.96 in1014.6 mb 0.00 in0.0 mm 0.00 in0.0 mm 0.00 in0.0 mm
09:07 AM 81.1°F27.3°C 75.8°F24.3°C 84% 0.9 mph NNE1.4 kmh NNE 1.1 mph1.8 kmh 29.97 in1014.9 mb 0.00 in0.0 mm 0.00 in0.0 mm 0.00 in0.0 mm
09:01 AM 80.8°F27.1°C 75.8°F24.3°C 85% Calm Calm -- 29.96 in1014.6 mb 0.00 in0.0 mm 0.00 in0.0 mm 0.00 in0.0 mm
08:57 AM 80.6°F27.0°C 75.7°F24.3°C 85% Calm Calm -- 29.96 in1014.6 mb 0.00 in0.0 mm 0.00 in0.0 mm 0.00 in0.0 mm
08:52 AM 80.6°F27.0°C 75.7°F24.3°C 85% Calm Calm 2.5 mph4.0 kmh 29.96 in1014.6 mb 0.00 in0.0 mm 0.00 in0.0 mm 0.00 in0.0 mm
08:46 AM 80.2°F26.8°C 76.0°F24.4°C 87% 2.5 mph SSW4.0 kmh SSW 2.5 mph4.0 kmh 29.95 in1014.2 mb 0.00 in0.0 mm 0.00 in0.0 mm 0.00 in0.0 mm
08:42 AM 79.9°F26.6°C 75.7°F24.3°C 87% Calm Calm 1.1 mph1.8 kmh 29.95 in1014.2 mb 0.00 in0.0 mm 0.00 in0.0 mm 0.00 in0.0 mm
08:35 AM 79.3°F26.3°C 75.5°F24.2°C 88% Calm Calm 1.1 mph1.8 kmh 29.95 in1014.2 mb 0.00 in0.0 mm 0.00 in0.0 mm 0.00 in0.0 mm
08:31 AM 79.2°F26.2°C 75.3°F24.1°C 88% Calm Calm -- 29.95 in1014.2 mb 0.00 in0.0 mm 0.00 in0.0 mm 0.00 in0.0 mm
08:25 AM 78.6°F25.9°C 75.2°F24.0°C 89% Calm Calm 1.6 mph2.6 kmh 29.95 in1014.2 mb 0.00 in0.0 mm 0.00 in0.0 mm 0.00 in0.0 mm
08:20 AM 78.6°F25.9°C 75.4°F24.1°C 89% Calm Calm 1.6 mph2.6 kmh 29.95 in1014.2 mb 0.00 in0.0 mm 0.00 in0.0 mm 0.00 in0.0 mm
08:16 AM 78.1°F25.6°C 75.0°F23.9°C 90% 1.6 mph SE2.6 kmh SE 2.2 mph3.5 kmh 29.95 in1014.2 mb 0.00 in0.0 mm 0.00 in0.0 mm 0.00 in0.0 mm
08:10 AM 77.5°F25.3°C 74.8°F23.8°C 91% 2.2 mph ESE3.5 kmh ESE 2.2 mph3.5 kmh 29.95 in1014.2 mb 0.00 in0.0 mm 0.00 in0.0 mm 0.00 in0.0 mm
08:05 AM 77.4°F25.2°C 74.6°F23.7°C 91% Calm Calm -- 29.95 in1014.2 mb 0.00 in0.0 mm 0.00 in0.0 mm 0.00 in0.0 mm
07:59 AM 76.8°F24.9°C 74.1°F23.4°C 91% Calm Calm -- 29.95 in1014.2 mb 0.00 in0.0 mm 0.00 in0.0 mm 0.00 in0.0 mm
07:52 AM 76.6°F24.8°C 73.9°F23.3°C 91% Calm Calm 1.3 mph2.1 kmh 29.94 in1013.9 mb 0.00 in0.0 mm 0.00 in0.0 mm 0.00 in0.0 mm
07:48 AM 76.3°F24.6°C 73.8°F23.2°C 92% 1.3 mph ESE2.1 kmh ESE 1.3 mph2.1 kmh 29.94 in1013.9 mb 0.00 in0.0 mm 0.00 in0.0 mm 0.00 in0.0 mm
07:44 AM 76.1°F24.5°C 73.7°F23.2°C 92% Calm Calm -- 29.93 in1013.5 mb 0.00 in0.0 mm 0.00 in0.0 mm 0.00 in0.0 mm
07:37 AM 75.9°F24.4°C 73.5°F23.1°C 92% Calm Calm -- 29.93 in1013.5 mb 0.00 in0.0 mm 0.00 in0.0 mm 0.00 in0.0 mm
07:33 AM 75.7°F24.3°C 73.3°F22.9°C 92% Calm Calm -- 29.93 in1013.5 mb 0.00 in0.0 mm 0.00 in0.0 mm 0.00 in0.0 mm
07:29 AM 75.7°F24.3°C 73.3°F22.9°C 92% Calm Calm 1.6 mph2.6 kmh 29.93 in1013.5 mb 0.00 in0.0 mm 0.00 in0.0 mm 0.00 in0.0 mm
07:23 AM 75.6°F24.2°C 73.1°F22.8°C 92% 1.6 mph SE2.6 kmh SE 1.6 mph2.6 kmh 29.93 in1013.5 mb 0.00 in0.0 mm 0.00 in0.0 mm 0.00 in0.0 mm
07:18 AM 75.4°F24.1°C 72.6°F22.6°C 91% Calm Calm -- 29.93 in1013.5 mb 0.00 in0.0 mm 0.00 in0.0 mm 0.00 in0.0 mm
07:10 AM 75.4°F24.1°C 72.6°F22.6°C 91% Calm Calm -- 29.92 in1013.2 mb 0.00 in0.0 mm 0.00 in0.0 mm 0.00 in0.0 mm
07:05 AM 75.4°F24.1°C 72.6°F22.6°C 91% Calm Calm -- 29.92 in1013.2 mb 0.00 in0.0 mm 0.00 in0.0 mm 0.00 in0.0 mm
07:01 AM 75.4°F24.1°C 72.6°F22.6°C 91% Calm Calm -- 29.91 in1012.9 mb 0.00 in0.0 mm 0.00 in0.0 mm 0.00 in0.0 mm
06:55 AM 75.4°F24.1°C 72.6°F22.6°C 91% Calm Calm -- 29.91 in1012.9 mb 0.00 in0.0 mm 0.00 in0.0 mm 0.00 in0.0 mm
06:50 AM 75.4°F24.1°C 72.6°F22.6°C 91% Calm Calm -- 29.90 in1012.5 mb 0.00 in0.0 mm 0.00 in0.0 mm 0.00 in0.0 mm
06:46 AM 75.4°F24.1°C 72.6°F22.6°C 91% Calm Calm -- 29.90 in1012.5 mb 0.00 in0.0 mm 0.00 in0.0 mm 0.00 in0.0 mm
06:40 AM 75.4°F24.1°C 72.6°F22.6°C 91% Calm Calm -- 29.90 in1012.5 mb 0.00 in0.0 mm 0.00 in0.0 mm 0.00 in0.0 mm
06:35 AM 75.2°F24.0°C 72.4°F22.4°C 91% Calm Calm -- 29.90 in1012.5 mb 0.00 in0.0 mm 0.00 in0.0 mm 0.00 in0.0 mm
06:31 AM 75.2°F24.0°C 72.4°F22.4°C 91% Calm Calm -- 29.90 in1012.5 mb 0.00 in0.0 mm 0.00 in0.0 mm 0.00 in0.0 mm
06:25 AM 75.2°F24.0°C 72.4°F22.4°C 91% Calm Calm -- 29.89 in1012.2 mb 0.00 in0.0 mm 0.00 in0.0 mm 0.00 in0.0 mm
06:20 AM 75.4°F24.1°C 72.6°F22.6°C 91% Calm Calm -- 29.89 in1012.2 mb 0.00 in0.0 mm 0.00 in0.0 mm 0.00 in0.0 mm
06:16 AM 75.4°F24.1°C 72.6°F22.6°C 91% Calm Calm -- 29.89 in1012.2 mb 0.00 in0.0 mm 0.00 in0.0 mm 0.00 in0.0 mm
06:10 AM 75.4°F24.1°C 72.6°F22.6°C 91% Calm Calm -- 29.89 in1012.2 mb 0.00 in0.0 mm 0.00 in0.0 mm 0.00 in0.0 mm
06:05 AM 75.4°F24.1°C 72.6°F22.6°C 91% Calm Calm -- 29.89 in1012.2 mb 0.00 in0.0 mm 0.00 in0.0 mm 0.00 in0.0 mm
05:59 AM 75.6°F24.2°C 72.8°F22.7°C 91% Calm Calm -- 29.88 in1011.9 mb 0.00 in0.0 mm 0.00 in0.0 mm 0.00 in0.0 mm
05:55 AM 75.6°F24.2°C 72.8°F22.7°C 91% Calm Calm -- 29.88 in1011.9 mb 0.00 in0.0 mm 0.00 in0.0 mm 0.00 in0.0 mm
05:48 AM 75.7°F24.3°C 73.0°F22.8°C 91% Calm Calm -- 29.88 in1011.9 mb 0.00 in0.0 mm 0.00 in0.0 mm 0.00 in0.0 mm
05:44 AM 75.7°F24.3°C 73.0°F22.8°C 91% Calm Calm -- 29.88 in1011.9 mb 0.00 in0.0 mm 0.00 in0.0 mm 0.00 in0.0 mm
05:40 AM 75.7°F24.3°C 73.0°F22.8°C 91% Calm Calm -- 29.88 in1011.9 mb 0.00 in0.0 mm 0.00 in0.0 mm 0.00 in0.0 mm
05:33 AM 75.7°F24.3°C 73.0°F22.8°C 91% Calm Calm -- 29.88 in1011.9 mb 0.00 in0.0 mm 0.00 in0.0 mm 0.00 in0.0 mm
05:27 AM 75.7°F24.3°C 73.0°F22.8°C 91% Calm Calm -- 29.87 in1011.5 mb 0.00 in0.0 mm 0.00 in0.0 mm 0.00 in0.0 mm
05:23 AM 75.9°F24.4°C 73.2°F22.9°C 91% Calm Calm -- 29.87 in1011.5 mb 0.00 in0.0 mm 0.00 in0.0 mm 0.00 in0.0 mm
05:16 AM 75.9°F24.4°C 73.2°F22.9°C 91% Calm Calm -- 29.87 in1011.5 mb 0.00 in0.0 mm 0.00 in0.0 mm 0.00 in0.0 mm
05:12 AM 75.9°F24.4°C 73.2°F22.9°C 91% Calm Calm -- 29.86 in1011.2 mb 0.00 in0.0 mm 0.00 in0.0 mm 0.00 in0.0 mm
05:05 AM 75.9°F24.4°C 73.2°F22.9°C 91% Calm Calm -- 29.87 in1011.5 mb 0.00 in0.0 mm 0.00 in0.0 mm 0.00 in0.0 mm
05:01 AM 75.9°F24.4°C 73.2°F22.9°C 91% Calm Calm -- 29.86 in1011.2 mb 0.00 in0.0 mm 0.00 in0.0 mm 0.00 in0.0 mm
04:57 AM 75.9°F24.4°C 73.2°F22.9°C 91% Calm Calm -- 29.86 in1011.2 mb 0.00 in0.0 mm 0.00 in0.0 mm 0.00 in0.0 mm
04:50 AM 75.9°F24.4°C 73.2°F22.9°C 91% Calm Calm -- 29.86 in1011.2 mb 0.00 in0.0 mm 0.00 in0.0 mm 0.00 in0.0 mm
04:44 AM 75.9°F24.4°C 73.2°F22.9°C 91% Calm Calm -- 29.86 in1011.2 mb 0.00 in0.0 mm 0.00 in0.0 mm 0.00 in0.0 mm
04:40 AM 75.9°F24.4°C 73.2°F22.9°C 91% Calm Calm 1.3 mph2.1 kmh 29.86 in1011.2 mb 0.00 in0.0 mm 0.00 in0.0 mm 0.00 in0.0 mm
04:35 AM 75.9°F24.4°C 73.2°F22.9°C 91% Calm Calm 1.3 mph2.1 kmh 29.86 in1011.2 mb 0.00 in0.0 mm 0.00 in0.0 mm 0.00 in0.0 mm
04:29 AM 75.9°F24.4°C 73.2°F22.9°C 91% Calm Calm -- 29.86 in1011.2 mb 0.00 in0.0 mm 0.00 in0.0 mm 0.00 in0.0 mm
04:25 AM 76.1°F24.5°C 73.3°F22.9°C 91% Calm Calm -- 29.86 in1011.2 mb 0.00 in0.0 mm 0.00 in0.0 mm 0.00 in0.0 mm
04:20 AM 76.1°F24.5°C 73.3°F22.9°C 91% Calm Calm -- 29.86 in1011.2 mb 0.00 in0.0 mm 0.00 in0.0 mm 0.00 in0.0 mm
04:14 AM 76.3°F24.6°C 73.5°F23.1°C 91% Calm Calm -- 29.86 in1011.2 mb 0.00 in0.0 mm 0.00 in0.0 mm 0.00 in0.0 mm
04:10 AM 76.3°F24.6°C 73.5°F23.1°C 91% Calm Calm -- 29.86 in1011.2 mb 0.00 in0.0 mm 0.00 in0.0 mm 0.00 in0.0 mm
04:03 AM 76.3°F24.6°C 73.5°F23.1°C 91% Calm Calm -- 29.86 in1011.2 mb 0.00 in0.0 mm 0.00 in0.0 mm 0.00 in0.0 mm
03:59 AM 76.3°F24.6°C 73.5°F23.1°C 91% Calm Calm -- 29.86 in1011.2 mb 0.00 in0.0 mm 0.00 in0.0 mm 0.00 in0.0 mm
03:55 AM 76.3°F24.6°C 73.5°F23.1°C 91% Calm Calm -- 29.86 in1011.2 mb 0.00 in0.0 mm 0.00 in0.0 mm 0.00 in0.0 mm
03:48 AM 76.3°F24.6°C 73.2°F22.9°C 90% Calm Calm -- 29.86 in1011.2 mb 0.00 in0.0 mm 0.00 in0.0 mm 0.00 in0.0 mm
03:44 AM 76.5°F24.7°C 73.4°F23.0°C 90% Calm Calm -- 29.86 in1011.2 mb 0.00 in0.0 mm 0.00 in0.0 mm 0.00 in0.0 mm
03:40 AM 76.6°F24.8°C 73.6°F23.1°C 90% Calm Calm -- 29.86 in1011.2 mb 0.00 in0.0 mm 0.00 in0.0 mm 0.00 in0.0 mm
03:33 AM 76.6°F24.8°C 73.6°F23.1°C 90% Calm Calm -- 29.87 in1011.5 mb 0.00 in0.0 mm 0.00 in0.0 mm 0.00 in0.0 mm
03:29 AM 76.6°F24.8°C 73.6°F23.1°C 90% Calm Calm -- 29.87 in1011.5 mb 0.00 in0.0 mm 0.00 in0.0 mm 0.00 in0.0 mm
03:23 AM 76.8°F24.9°C 73.8°F23.2°C 90% Calm Calm -- 29.87 in1011.5 mb 0.00 in0.0 mm 0.00 in0.0 mm 0.00 in0.0 mm
03:18 AM 77.0°F25.0°C 73.9°F23.3°C 90% Calm Calm -- 29.87 in1011.5 mb 0.00 in0.0 mm 0.00 in0.0 mm 0.00 in0.0 mm
03:12 AM 77.2°F25.1°C 73.8°F23.2°C 89% Calm Calm -- 29.86 in1011.2 mb 0.00 in0.0 mm 0.00 in0.0 mm 0.00 in0.0 mm
03:05 AM 77.4°F25.2°C 73.9°F23.3°C 89% Calm Calm -- 29.86 in1011.2 mb 0.00 in0.0 mm 0.00 in0.0 mm 0.00 in0.0 mm
03:01 AM 77.5°F25.3°C 73.8°F23.2°C 88% Calm Calm -- 29.86 in1011.2 mb 0.00 in0.0 mm 0.00 in0.0 mm 0.00 in0.0 mm
02:57 AM 77.7°F25.4°C 73.9°F23.3°C 88% Calm Calm -- 29.86 in1011.2 mb 0.00 in0.0 mm 0.00 in0.0 mm 0.00 in0.0 mm
02:51 AM 77.9°F25.5°C 74.1°F23.4°C 88% Calm Calm -- 29.86 in1011.2 mb 0.00 in0.0 mm 0.00 in0.0 mm 0.00 in0.0 mm
02:46 AM 77.9°F25.5°C 74.3°F23.5°C 88% Calm Calm 1.1 mph1.8 kmh 29.86 in1011.2 mb 0.00 in0.0 mm 0.00 in0.0 mm 0.00 in0.0 mm
02:40 AM 78.1°F25.6°C 74.3°F23.5°C 88% Calm Calm 1.1 mph1.8 kmh 29.86 in1011.2 mb 0.00 in0.0 mm 0.00 in0.0 mm 0.00 in0.0 mm
02:36 AM 78.1°F25.6°C 74.3°F23.5°C 88% Calm Calm 1.1 mph1.8 kmh 29.87 in1011.5 mb 0.00 in0.0 mm 0.00 in0.0 mm 0.00 in0.0 mm
02:29 AM 78.1°F25.6°C 74.3°F23.5°C 88% Calm Calm -- 29.87 in1011.5 mb 0.00 in0.0 mm 0.00 in0.0 mm 0.00 in0.0 mm
02:25 AM 78.1°F25.6°C 74.3°F23.5°C 88% Calm Calm -- 29.87 in1011.5 mb 0.00 in0.0 mm 0.00 in0.0 mm 0.00 in0.0 mm
02:18 AM 78.1°F25.6°C 74.3°F23.5°C 88% Calm Calm -- 29.87 in1011.5 mb 0.00 in0.0 mm 0.00 in0.0 mm 0.00 in0.0 mm
02:14 AM 78.1°F25.6°C 74.3°F23.5°C 88% Calm Calm -- 29.87 in1011.5 mb 0.00 in0.0 mm 0.00 in0.0 mm 0.00 in0.0 mm
02:08 AM 78.1°F25.6°C 74.3°F23.5°C 88% Calm Calm -- 29.87 in1011.5 mb 0.00 in0.0 mm 0.00 in0.0 mm 0.00 in0.0 mm
02:03 AM 78.3°F25.7°C 74.7°F23.7°C 88% Calm Calm -- 29.87 in1011.5 mb 0.00 in0.0 mm 0.00 in0.0 mm 0.00 in0.0 mm
01:59 AM 78.4°F25.8°C 74.7°F23.7°C 88% Calm Calm -- 29.87 in1011.5 mb 0.00 in0.0 mm 0.00 in0.0 mm 0.00 in0.0 mm
01:53 AM 78.4°F25.8°C 74.7°F23.7°C 88% Calm Calm -- 29.87 in1011.5 mb 0.00 in0.0 mm 0.00 in0.0 mm 0.00 in0.0 mm
01:48 AM 78.4°F25.8°C 74.7°F23.7°C 88% Calm Calm -- 29.87 in1011.5 mb 0.00 in0.0 mm 0.00 in0.0 mm 0.00 in0.0 mm
01:44 AM 78.4°F25.8°C 74.7°F23.7°C 88% Calm Calm -- 29.87 in1011.5 mb 0.00 in0.0 mm 0.00 in0.0 mm 0.00 in0.0 mm
01:38 AM 78.6°F25.9°C 74.8°F23.8°C 88% Calm Calm -- 29.87 in1011.5 mb 0.00 in0.0 mm 0.00 in0.0 mm 0.00 in0.0 mm
01:33 AM 78.6°F25.9°C 74.8°F23.8°C 88% Calm Calm -- 29.87 in1011.5 mb 0.00 in0.0 mm 0.00 in0.0 mm 0.00 in0.0 mm
01:27 AM 78.6°F25.9°C 74.8°F23.8°C 88% Calm Calm -- 29.87 in1011.5 mb 0.00 in0.0 mm 0.00 in0.0 mm 0.00 in0.0 mm
01:23 AM 78.6°F25.9°C 74.8°F23.8°C 88% Calm Calm -- 29.87 in1011.5 mb 0.00 in0.0 mm 0.00 in0.0 mm 0.00 in0.0 mm
01:16 AM 78.6°F25.9°C 74.8°F23.8°C 88% Calm Calm -- 29.87 in1011.5 mb 0.00 in0.0 mm 0.00 in0.0 mm 0.00 in0.0 mm
01:10 AM 78.6°F25.9°C 74.5°F23.6°C 87% Calm Calm -- 29.87 in1011.5 mb 0.00 in0.0 mm 0.00 in0.0 mm 0.00 in0.0 mm
01:06 AM 78.6°F25.9°C 74.5°F23.6°C 87% Calm Calm -- 29.88 in1011.9 mb 0.00 in0.0 mm 0.00 in0.0 mm 0.00 in0.0 mm
01:01 AM 78.6°F25.9°C 74.5°F23.6°C 87% Calm Calm -- 29.88 in1011.9 mb 0.00 in0.0 mm 0.00 in0.0 mm 0.00 in0.0 mm
12:53 AM 78.8°F26.0°C 74.3°F23.5°C 86% Calm Calm -- 29.88 in1011.9 mb 0.00 in0.0 mm 0.00 in0.0 mm 0.00 in0.0 mm
12:48 AM 79.0°F26.1°C 74.5°F23.6°C 86% Calm Calm -- 29.88 in1011.9 mb 0.00 in0.0 mm 0.00 in0.0 mm 0.00 in0.0 mm
12:44 AM 79.0°F26.1°C 74.5°F23.6°C 86% Calm Calm -- 29.88 in1011.9 mb 0.00 in0.0 mm 0.00 in0.0 mm 0.00 in0.0 mm
12:38 AM 79.2°F26.2°C 74.6°F23.7°C 86% Calm Calm -- 29.88 in1011.9 mb 0.00 in0.0 mm 0.00 in0.0 mm 0.00 in0.0 mm
12:33 AM 79.2°F26.2°C 74.6°F23.7°C 86% Calm Calm -- 29.89 in1012.2 mb 0.00 in0.0 mm 0.00 in0.0 mm 0.00 in0.0 mm
12:27 AM 79.3°F26.3°C 74.8°F23.8°C 86% Calm Calm -- 29.89 in1012.2 mb 0.00 in0.0 mm 0.00 in0.0 mm 0.00 in0.0 mm
12:21 AM 79.3°F26.3°C 74.4°F23.6°C 85% Calm Calm -- 29.89 in1012.2 mb 0.00 in0.0 mm 0.00 in0.0 mm 0.00 in0.0 mm
12:16 AM 79.5°F26.4°C 74.6°F23.7°C 85% Calm Calm -- 29.88 in1011.9 mb 0.00 in0.0 mm 0.00 in0.0 mm 0.00 in0.0 mm
12:12 AM 79.5°F26.4°C 74.6°F23.7°C 85% Calm Calm -- 29.88 in1011.9 mb 0.00 in0.0 mm 0.00 in0.0 mm 0.00 in0.0 mm
12:06 AM 79.5°F26.4°C 74.6°F23.7°C 85% Calm Calm -- 29.88 in1011.9 mb 0.00 in0.0 mm 0.00 in0.0 mm 0.00 in0.0 mm
12:01 AM 79.5°F26.4°C 74.6°F23.7°C 85% Calm Calm -- 29.89 in1012.2 mb 0.00 in0.0 mm 0.00 in0.0 mm 0.00 in0.0 mm